Pagrindinis puslapis
METAR-TAF:

METAR-TAF

Oro uostai :

Resolute, Nunavutas, Kanada

platuma: 74-43N, ilguma: 094-59W, Aukštis: 67 m

Dabartinis oras

Ataskaita buvo paskelbta 20 minutes, ne 23:00 UTC
Vėjas 6 kt iš Pietryčių, svyruoja nuo Rytų ir Pietų
Temperatūra -14°C
Drėgmė 60%
Slėgis 1019 hPa
Matomumas: 24.1 km
Išsisklaidę debesys ne aukštis 20000 ft

METAR: CYRB 072300Z 13006KT 080V170 15SM SCT200 M14/M20 A3009 RMK CC3 SLP201

Laikas: 18:20 (23:20 UTC)

Prognozė

Ataskaita buvo paskelbta 5 valandos ir 40 minutes, ne 17:40 UTC
Prognozė galioja nuo 07 metu 18 UTC su 08 metu 18 UTC
Vėjas 15 kt iš Pietų/Pietryčių su gūsio iki 25 kt
Matomumas: 10 km
Mažai debesys ne aukštis 3000 ft
Išsisklaidę debesys ne aukštis 10000 ft
Nuo 08 metu 0300 UTC
Vėjas 15 kt iš Pietų/Pietryčių su gūsio iki 25 kt
Matomumas: 10 km
Su prošvaistėmis ne aukštis 12000 ft

TAF: CYRB 071740Z 0718/0818 15015G25KT P6SM FEW030 SCT100 FM080300 16015G25KT P6SM BKN120 RMK NXT FCST BY 080000Z

Orai ataskaitas ir orų prognozės (METAR, TAF).

turimą stotys yra geltonos ir raudonos taškus žemėlapyje.

Perkelti pele per norėdami pamatyti stoties vardą.

Tada spustelėkite, norėdami matyti oro stebėjimo ir prognozės.

Norėdami pakeisti žemėlapį: spustelėkite ant žalios mygtukų su juodo kryžiaus žemyn,; žalią mygtuką su brūkšneliu, jei norite nutolinti; arba žalių rodyklių gretimoms žemėlapius.


METAR-TAF: